Time;durP1;ratioP1;P1;durP2;ratioP2;P2;SDS_P1;SDS_P2;PMS_P1;PMS_P2;Temp;Humidity;BMP_temperature;BMP_pressure;BME280_temperature;BME280_humidity;BME280_pressure;Samples;Min_cycle;Max_cycle;Signal;HPM_P1;HPM_P2
2023/12/09 00:00:34;;;;;;;1.73;1.65;;;;;;;0.73;92.80;97251.63;4985366;28;20047;-72
2023/12/09 00:03:04;;;;;;;1.77;1.67;;;;;;;0.76;92.82;97253.97;4981647;28;20050;-72
2023/12/09 00:05:32;;;;;;;1.80;1.77;;;;;;;0.79;92.89;97252.88;4982495;28;20651;-72
2023/12/09 00:08:00;;;;;;;1.70;1.65;;;;;;;0.83;92.66;97249.00;4979438;28;20050;-72
2023/12/09 00:10:27;;;;;;;1.83;1.80;;;;;;;0.84;92.52;97251.44;4973491;28;20586;-73
2023/12/09 00:12:55;;;;;;;1.92;1.83;;;;;;;0.88;92.35;97252.00;4979255;28;20081;-72
2023/12/09 00:15:22;;;;;;;1.75;1.73;;;;;;;0.89;92.35;97256.28;4976819;28;20050;-72
2023/12/09 00:17:51;;;;;;;1.38;1.38;;;;;;;0.91;92.38;97249.09;4981814;28;20046;-72
2023/12/09 00:20:20;;;;;;;1.40;1.40;;;;;;;0.93;92.31;97242.75;4998643;28;20132;-72
2023/12/09 00:22:47;;;;;;;1.55;1.55;;;;;;;0.92;92.22;97237.63;5000880;28;20054;-72
2023/12/09 00:25:15;;;;;;;1.42;1.42;;;;;;;0.93;92.15;97242.75;5004029;28;20089;-71
2023/12/09 00:27:43;;;;;;;1.48;1.48;;;;;;;0.92;92.19;97241.09;5000479;28;20069;-72
2023/12/09 00:30:11;;;;;;;1.25;1.25;;;;;;;0.91;92.22;97243.84;4996969;28;20046;-72
2023/12/09 00:32:39;;;;;;;1.92;1.88;;;;;;;0.92;92.27;97248.97;4988660;28;20166;-72
2023/12/09 00:35:07;;;;;;;1.50;1.50;;;;;;;0.91;92.34;97243.84;4997515;28;20065;-72
2023/12/09 00:37:36;;;;;;;1.58;1.58;;;;;;;0.93;92.31;97241.91;4998840;28;20086;-71
2023/12/09 00:40:04;;;;;;;1.42;1.42;;;;;;;0.89;92.60;97233.47;4992094;28;20058;-72
2023/12/09 00:42:32;;;;;;;1.15;1.15;;;;;;;0.93;92.15;97236.66;4995795;28;20053;-72
2023/12/09 00:45:00;;;;;;;1.55;1.55;;;;;;;0.96;92.10;97231.09;4988159;28;20114;-72
2023/12/09 00:47:28;;;;;;;1.30;1.30;;;;;;;0.90;92.37;97236.94;4971898;28;20043;-73
2023/12/09 00:49:55;;;;;;;1.50;1.50;;;;;;;0.90;92.61;97237.75;4985239;28;20373;-72
2023/12/09 00:52:23;;;;;;;1.40;1.40;;;;;;;0.90;92.63;97239.56;4982443;28;20192;-73
2023/12/09 00:54:52;;;;;;;1.50;1.50;;;;;;;0.90;92.80;97256.16;4982606;28;20132;-72
2023/12/09 00:57:22;;;;;;;1.80;1.73;;;;;;;0.91;92.96;97249.09;4986316;28;20047;-73
2023/12/09 00:59:49;;;;;;;1.67;1.65;;;;;;;0.94;93.08;97254.88;4986998;28;20110;-72
2023/12/09 01:02:17;;;;;;;1.50;1.50;;;;;;;1.02;93.17;97251.56;4990957;28;20050;-73
2023/12/09 01:04:45;;;;;;;1.73;1.73;;;;;;;1.00;92.97;97242.97;4977573;28;20035;-72
2023/12/09 01:07:13;;;;;;;1.20;1.20;;;;;;;1.02;92.79;97256.81;4979299;28;20049;-72
2023/12/09 01:09:40;;;;;;;1.48;1.48;;;;;;;1.02;92.77;97251.56;4980916;28;20061;-71
2023/12/09 01:12:10;;;;;;;1.67;1.67;;;;;;;1.00;93.07;97259.56;4988159;28;20510;-72
2023/12/09 01:14:37;;;;;;;1.38;1.38;;;;;;;1.00;92.78;97251.69;4980769;28;20145;-71
2023/12/09 01:17:05;;;;;;;1.65;1.65;;;;;;;1.00;92.74;97253.50;4988518;28;20069;-71
2023/12/09 01:19:33;;;;;;;0.70;0.70;;;;;;;0.99;92.89;97241.31;4990930;28;20395;-74
2023/12/09 01:22:00;;;;;;;1.92;1.92;;;;;;;0.99;92.78;97249.19;4990290;28;20090;-74
2023/12/09 01:24:28;;;;;;;1.15;1.15;;;;;;;0.99;92.99;97259.72;4978633;28;20050;-71
2023/12/09 01:26:56;;;;;;;1.50;1.50;;;;;;;1.00;93.34;97242.97;4986473;28;20096;-73
2023/12/09 01:29:25;;;;;;;1.15;1.15;;;;;;;1.03;93.18;97248.78;4975689;28;20046;-74
2023/12/09 01:31:52;;;;;;;1.10;1.10;;;;;;;1.03;93.32;97253.22;4980584;28;20042;-72
2023/12/09 01:34:23;;;;;;;1.20;1.20;;;;;;;1.06;93.38;97252.91;4973755;28;20377;-73
2023/12/09 01:36:51;;;;;;;1.20;1.20;;;;;;;1.07;93.57;97259.81;4980327;28;20184;-74
2023/12/09 01:39:18;;;;;;;1.13;1.13;;;;;;;1.09;93.61;97258.72;4980236;28;20049;-72
2023/12/09 01:41:46;;;;;;;1.52;1.52;;;;;;;1.12;93.82;97256.78;4979709;28;20049;-73
2023/12/09 01:44:13;;;;;;;1.40;1.40;;;;;;;1.15;93.86;97265.19;4985346;28;20041;-73
2023/12/09 01:46:42;;;;;;;1.02;1.02;;;;;;;1.16;93.70;97258.13;4986512;28;20038;-74
2023/12/09 01:49:10;;;;;;;1.27;1.27;;;;;;;1.17;93.74;97255.34;4981953;28;20521;-73
2023/12/09 01:51:39;;;;;;;0.93;0.93;;;;;;;1.19;93.82;97269.19;4978107;28;20051;-73
2023/12/09 01:54:07;;;;;;;1.38;1.38;;;;;;;1.20;93.70;97267.38;4981923;28;20360;-74
2023/12/09 01:56:34;;;;;;;1.63;1.63;;;;;;;1.25;93.64;97268.59;4985561;28;20253;-73
2023/12/09 01:59:03;;;;;;;1.25;1.25;;;;;;;1.25;93.40;97265.13;4980793;28;20097;-73
2023/12/09 02:01:31;;;;;;;1.35;1.35;;;;;;;1.25;93.08;97265.13;4981098;28;20046;-74
2023/12/09 02:04:00;;;;;;;1.30;1.30;;;;;;;1.29;92.89;97269.13;4981314;28;20084;-72
2023/12/09 02:06:28;;;;;;;1.23;1.23;;;;;;;1.26;92.68;97275.50;4987090;28;20046;-74
2023/12/09 02:08:56;;;;;;;1.42;1.42;;;;;;;1.25;92.41;97279.09;4986805;28;20133;-74
2023/12/09 02:11:36;;;;;;;1.13;1.13;;;;;;;1.28;92.35;97283.25;4990288;28;20110;-73
2023/12/09 02:14:07;;;;;;;1.10;1.10;;;;;;;1.27;92.21;97287.69;4984899;28;20042;-72
2023/12/09 02:16:38;;;;;;;1.50;1.50;;;;;;;1.23;92.37;97281.06;4986498;28;20050;-74
2023/12/09 02:19:08;;;;;;;1.25;1.25;;;;;;;1.23;92.51;97280.25;4990302;28;20047;-73
2023/12/09 02:21:56;;;;;;;1.25;1.25;;;;;;;1.24;92.54;97288.00;4989924;28;20065;-73
2023/12/09 02:24:26;;;;;;;1.80;1.80;;;;;;;1.24;92.44;97280.09;4977674;28;20035;-73
2023/12/09 02:26:54;;;;;;;1.50;1.50;;;;;;;1.26;92.57;97290.44;4969040;28;20053;-73
2023/12/09 02:29:23;;;;;;;0.95;0.95;;;;;;;1.27;92.67;97277.16;4985410;28;20084;-73
2023/12/09 02:31:53;;;;;;;1.30;1.30;;;;;;;1.27;92.45;97278.97;4987447;28;20046;-74
2023/12/09 02:34:21;;;;;;;1.17;1.17;;;;;;;1.34;92.58;97280.06;4985202;28;20504;-74
2023/12/09 02:36:50;;;;;;;1.15;1.15;;;;;;;1.35;92.45;97287.78;4971964;28;20050;-74
2023/12/09 02:39:18;;;;;;;1.30;1.30;;;;;;;1.37;92.13;97285.00;4987690;28;20388;-74
2023/12/09 02:41:48;;;;;;;1.58;1.58;;;;;;;1.36;92.32;97294.69;4983290;28;20089;-73
2023/12/09 02:44:15;;;;;;;1.52;1.52;;;;;;;1.36;92.29;97294.69;4986482;28;20048;-75
2023/12/09 02:46:43;;;;;;;1.73;1.73;;;;;;;1.35;92.20;97300.13;4979338;28;20055;-72
2023/12/09 02:49:11;;;;;;;1.38;1.38;;;;;;;1.35;92.12;97305.38;4986887;28;20046;-70
2023/12/09 02:51:38;;;;;;;3.03;2.92;;;;;;;1.32;92.00;97303.88;4986733;28;20085;-74
2023/12/09 02:54:06;;;;;;;1.27;1.27;;;;;;;1.34;92.57;97301.91;4982683;28;20051;-74
2023/12/09 02:56:33;;;;;;;0.52;0.52;;;;;;;1.32;91.84;97306.50;4974293;28;20403;-73
2023/12/09 02:59:02;;;;;;;1.25;1.25;;;;;;;1.30;92.01;97302.34;4982373;28;20046;-73
2023/12/09 03:01:30;;;;;;;1.52;1.52;;;;;;;1.37;92.13;97303.41;4994676;28;20042;-70
2023/12/09 03:03:57;;;;;;;1.23;1.23;;;;;;;1.29;91.60;97303.31;4973198;28;20057;-72
2023/12/09 03:06:25;;;;;;;1.40;1.40;;;;;;;1.24;91.91;97300.31;4985191;28;20101;-70
2023/12/09 03:08:53;;;;;;;1.38;1.38;;;;;;;1.32;92.21;97300.41;4981409;28;20100;-73
2023/12/09 03:11:20;;;;;;;1.30;1.30;;;;;;;1.34;91.83;97303.72;4984619;28;20072;-71
2023/12/09 03:13:48;;;;;;;1.30;1.30;;;;;;;1.30;91.56;97297.09;4997486;28;20042;-71
2023/12/09 03:16:17;;;;;;;1.25;1.25;;;;;;;1.32;91.84;97292.50;4998427;28;20499;-74
2023/12/09 03:18:44;;;;;;;1.42;1.42;;;;;;;1.34;91.88;97315.06;4983446;28;20133;-73
2023/12/09 03:21:14;;;;;;;1.42;1.42;;;;;;;1.34;92.00;97317.69;4993844;28;20129;-71
2023/12/09 03:23:42;;;;;;;1.33;1.33;;;;;;;1.37;91.56;97320.00;4980747;28;20050;-74
2023/12/09 03:26:16;;;;;;;1.20;1.20;;;;;;;1.35;91.56;97318.53;4976244;28;20510;-73
2023/12/09 03:28:44;;;;;;;1.10;1.10;;;;;;;1.32;91.83;97306.50;4982186;28;20042;-73
2023/12/09 03:31:12;;;;;;;0.50;0.50;;;;;;;1.33;91.74;97316.03;4984440;28;20395;-74
2023/12/09 03:33:42;;;;;;;1.48;1.48;;;;;;;1.36;91.68;97320.16;4980686;28;20514;-74
2023/12/09 03:36:11;;;;;;;1.23;1.23;;;;;;;1.37;91.36;97309.50;4983174;28;20074;-72
2023/12/09 03:38:39;;;;;;;1.50;1.50;;;;;;;1.35;91.61;97316.69;4987331;28;20045;-73
2023/12/09 03:41:07;;;;;;;1.75;1.75;;;;;;;1.35;91.51;97311.44;4978349;28;20045;-72
2023/12/09 03:43:35;;;;;;;1.30;1.30;;;;;;;1.35;91.73;97316.69;4985176;28;20146;-73
2023/12/09 03:46:03;;;;;;;1.10;1.10;;;;;;;1.34;91.77;97319.50;4964415;28;20046;-73
2023/12/09 03:48:31;;;;;;;1.38;1.38;;;;;;;1.41;91.62;97317.94;4983615;28;20042;-73
2023/12/09 03:51:01;;;;;;;1.50;1.40;;;;;;;1.32;91.42;97324.06;4989420;28;20133;-73
2023/12/09 03:53:29;;;;;;;1.23;1.23;;;;;;;1.31;91.48;97320.59;4984287;28;20503;-73
2023/12/09 03:55:57;;;;;;;1.60;1.60;;;;;;;1.31;91.53;97325.84;4982538;28;20038;-73
2023/12/09 03:58:24;;;;;;;1.15;1.15;;;;;;;1.32;91.42;97324.06;4987613;28;20054;-74
2023/12/09 04:00:52;;;;;;;2.40;2.30;;;;;;;1.27;91.45;97321.00;4992396;28;20042;-70
2023/12/09 04:03:20;;;;;;;1.70;1.70;;;;;;;1.30;91.54;97316.31;4992237;28;20183;-73
2023/12/09 04:05:48;;;;;;;1.50;1.50;;;;;;;1.34;91.36;97322.13;4974883;28;20070;-71
2023/12/09 04:08:17;;;;;;;1.23;1.23;;;;;;;1.30;91.60;97318.09;4980035;28;20490;-74
2023/12/09 04:10:44;;;;;;;1.70;1.70;;;;;;;1.36;91.60;97328.03;4977829;28;20117;-74
2023/12/09 04:13:12;;;;;;;1.17;1.17;;;;;;;1.45;91.56;97337.72;5001936;28;20079;-73
2023/12/09 04:15:38;;;;;;;1.10;1.10;;;;;;;1.39;91.72;97333.00;4986053;28;20043;-73
2023/12/09 04:18:06;;;;;;;1.40;1.40;;;;;;;1.37;91.69;97320.00;4982406;28;20061;-73
2023/12/09 04:20:34;;;;;;;1.45;1.45;;;;;;;1.40;91.63;97319.72;4991797;28;20050;-73
2023/12/09 04:23:02;;;;;;;1.25;1.25;;;;;;;1.43;91.94;97316.81;4989322;28;20047;-73
2023/12/09 04:25:31;;;;;;;1.25;1.25;;;;;;;1.44;92.09;97307.97;4987766;28;20039;-74
2023/12/09 04:27:59;;;;;;;1.52;1.52;;;;;;;1.48;92.12;97305.84;4969314;28;20093;-73
2023/12/09 04:30:26;;;;;;;0.98;0.98;;;;;;;1.50;91.96;97308.34;4991889;28;20550;-73
2023/12/09 04:32:54;;;;;;;1.02;1.02;;;;;;;1.54;91.76;97299.19;4988765;28;20581;-73
2023/12/09 04:35:22;;;;;;;1.27;1.27;;;;;;;1.55;92.19;97306.94;4989360;28;20035;-72
2023/12/09 04:37:49;;;;;;;1.30;1.30;;;;;;;1.51;92.13;97308.19;4989295;28;20159;-73
2023/12/09 04:40:17;;;;;;;1.27;1.27;;;;;;;1.48;92.46;97305.84;4998177;28;20034;-73
2023/12/09 04:42:47;;;;;;;0.65;0.65;;;;;;;1.46;92.59;97306.00;4989669;28;20416;-73
2023/12/09 04:45:15;;;;;;;0.90;0.90;;;;;;;1.41;92.90;97310.88;4989855;28;20069;-72
2023/12/09 04:47:42;;;;;;;1.25;1.25;;;;;;;1.41;92.92;97300.34;4988772;28;20093;-73
2023/12/09 04:50:10;;;;;;;1.30;1.30;;;;;;;1.43;92.86;97308.09;4985769;28;20395;-73
2023/12/09 04:52:38;;;;;;;1.38;1.38;;;;;;;1.40;92.90;97308.38;4991619;28;20047;-73
2023/12/09 04:55:08;;;;;;;1.17;1.17;;;;;;;1.40;93.02;97305.75;4982121;28;20569;-73
2023/12/09 04:57:35;;;;;;;1.00;1.00;;;;;;;1.40;92.97;97308.38;4975482;28;20514;-73
2023/12/09 05:00:06;;;;;;;1.10;1.10;;;;;;;1.40;92.92;97308.38;4979080;28;20046;-72
2023/12/09 05:02:34;;;;;;;1.33;1.33;;;;;;;1.42;92.86;97309.06;4984488;28;20046;-71
2023/12/09 05:05:01;;;;;;;1.38;1.38;;;;;;;1.41;92.93;97315.31;4991995;28;20049;-72
2023/12/09 05:07:29;;;;;;;1.25;1.25;;;;;;;1.41;92.89;97310.03;4985530;28;20122;-71
2023/12/09 05:09:56;;;;;;;1.10;1.10;;;;;;;1.39;92.99;97306.72;4985589;28;20046;-71
2023/12/09 05:12:24;;;;;;;1.10;1.10;;;;;;;1.39;93.08;97298.84;4990199;28;20046;-71
2023/12/09 05:14:52;;;;;;;0.50;0.50;;;;;;;1.39;93.03;97289.16;4980421;28;20482;-71
2023/12/09 05:17:21;;;;;;;1.30;1.30;;;;;;;1.41;92.88;97294.28;4986462;28;20045;-72
2023/12/09 05:19:49;;;;;;;0.40;0.40;;;;;;;1.42;93.07;97291.50;4988461;28;20293;-72
2023/12/09 05:22:18;;;;;;;1.25;1.25;;;;;;;1.42;93.03;97286.25;4992859;28;20384;-70
2023/12/09 05:24:45;;;;;;;1.17;1.17;;;;;;;1.43;93.08;97287.06;4972855;28;20046;-71
2023/12/09 05:27:13;;;;;;;1.00;1.00;;;;;;;1.40;93.29;97282.94;4976083;28;20082;-72
2023/12/09 05:29:43;;;;;;;1.10;1.10;;;;;;;1.45;93.09;97285.13;4990611;28;20077;-72
2023/12/09 05:32:11;;;;;;;2.28;2.17;;;;;;;1.47;92.84;97286.63;4992003;28;20043;-72
2023/12/09 05:34:40;;;;;;;1.48;1.48;;;;;;;1.52;92.94;97291.47;4987740;28;20050;-70
2023/12/09 05:37:07;;;;;;;1.17;1.17;;;;;;;1.51;92.92;97274.03;4976444;28;20133;-70
2023/12/09 05:39:35;;;;;;;1.15;1.15;;;;;;;1.46;92.93;97278.88;4986434;28;20122;-70
2023/12/09 05:42:04;;;;;;;1.30;1.30;;;;;;;1.50;93.12;97277.63;4989900;28;20068;-71
2023/12/09 05:44:32;;;;;;;1.25;1.25;;;;;;;1.50;93.07;97272.38;4985285;28;20511;-70
2023/12/09 05:46:59;;;;;;;2.50;2.40;;;;;;;1.51;93.23;97265.31;4981503;28;20054;-70
2023/12/09 05:49:27;;;;;;;1.10;1.10;;;;;;;1.51;93.36;97273.19;4991418;28;20038;-71
2023/12/09 05:51:56;;;;;;;1.25;1.25;;;;;;;1.51;93.40;97284.53;4988806;28;20459;-71
2023/12/09 05:54:23;;;;;;;1.42;1.42;;;;;;;1.56;93.21;97281.47;4987416;28;20050;-71
2023/12/09 05:56:51;;;;;;;0.80;0.80;;;;;;;1.53;93.41;97287.03;4990082;28;20403;-71
2023/12/09 05:59:19;;;;;;;0.40;0.40;;;;;;;1.56;93.28;97286.75;4980754;28;20476;-71
2023/12/09 06:01:46;;;;;;;1.20;1.20;;;;;;;1.56;92.95;97282.28;4986643;28;20049;-71
2023/12/09 06:04:14;;;;;;;1.00;1.00;;;;;;;1.61;93.02;97280.06;4979560;28;20046;-70
2023/12/09 06:06:42;;;;;;;1.30;1.30;;;;;;;1.58;93.07;97290.84;4985110;28;20078;-71
2023/12/09 06:09:11;;;;;;;1.23;1.23;;;;;;;1.61;93.22;97290.56;4977034;28;20057;-71
2023/12/09 06:11:39;;;;;;;1.33;1.33;;;;;;;1.59;93.11;97279.38;4982323;28;20053;-71
2023/12/09 06:14:06;;;;;;;1.42;1.42;;;;;;;1.61;93.33;97277.44;4977463;28;20061;-71
2023/12/09 06:16:34;;;;;;;1.20;1.20;;;;;;;1.61;93.07;97287.13;4983188;28;20039;-71
2023/12/09 06:19:02;;;;;;;1.10;1.10;;;;;;;1.61;93.16;97279.22;4981082;28;20047;-70
2023/12/09 06:21:30;;;;;;;1.20;1.20;;;;;;;1.62;93.36;97271.19;4979531;28;20042;-71
2023/12/09 06:23:58;;;;;;;1.48;1.48;;;;;;;1.65;93.24;97276.16;4985942;28;20055;-71
2023/12/09 06:26:27;;;;;;;1.50;1.50;;;;;;;1.69;93.27;97274.06;4980218;28;20042;-71
2023/12/09 06:28:55;;;;;;;1.40;1.40;;;;;;;1.67;93.03;97270.75;4974825;28;20316;-70
2023/12/09 06:31:22;;;;;;;1.65;1.65;;;;;;;1.68;92.89;97273.22;4975322;28;20052;-70
2023/12/09 06:33:50;;;;;;;1.25;1.25;;;;;;;1.71;92.86;97275.56;4986684;28;20041;-71
2023/12/09 06:36:18;;;;;;;1.00;1.00;;;;;;;1.75;93.03;97276.13;4975333;28;20046;-71
2023/12/09 06:38:45;;;;;;;1.35;1.35;;;;;;;1.80;92.71;97271.22;4982357;28;20082;-71
2023/12/09 06:41:13;;;;;;;1.10;1.10;;;;;;;1.81;92.52;97278.13;4988782;28;20106;-71
2023/12/09 06:43:42;;;;;;;1.15;1.15;;;;;;;1.79;92.59;97283.53;4989477;28;20518;-71
2023/12/09 06:46:10;;;;;;;1.00;1.00;;;;;;;1.81;92.51;97286.84;4979800;28;20048;-72
2023/12/09 06:48:38;;;;;;;1.30;1.30;;;;;;;1.75;92.54;97279.56;4979908;28;20515;-71
2023/12/09 06:51:08;;;;;;;1.20;1.20;;;;;;;1.70;92.90;97283.59;4984273;28;20065;-72
2023/12/09 06:53:38;;;;;;;1.05;1.05;;;;;;;1.63;92.52;97275.47;4989237;28;20050;-71
2023/12/09 06:56:08;;;;;;;1.38;1.38;;;;;;;1.63;92.42;97286.00;4982775;28;20065;-73
2023/12/09 06:58:39;;;;;;;1.00;1.00;;;;;;;1.59;92.58;97284.63;4990537;28;20115;-71
2023/12/09 07:01:08;;;;;;;1.02;1.02;;;;;;;1.57;92.52;97273.41;4982950;28;20367;-70
2023/12/09 07:03:37;;;;;;;1.30;1.30;;;;;;;1.56;92.69;97287.53;4990955;28;20064;-72
2023/12/09 07:06:05;;;;;;;1.25;1.25;;;;;;;1.59;92.81;97278.53;4977969;28;20050;-70
2023/12/09 07:08:33;;;;;;;1.08;1.08;;;;;;;1.62;92.85;97286.16;4983334;28;20051;-71
2023/12/09 07:11:01;;;;;;;1.38;1.38;;;;;;;1.71;93.01;97290.53;4985197;28;20046;-70
2023/12/09 07:13:28;;;;;;;0.90;0.90;;;;;;;1.74;92.74;97291.06;4978454;28;20062;-71
2023/12/09 07:15:56;;;;;;;0.75;0.75;;;;;;;1.77;92.56;97285.50;4985184;28;20534;-70
2023/12/09 07:18:25;;;;;;;1.00;1.00;;;;;;;1.77;92.45;97290.75;4982910;28;20043;-70
2023/12/09 07:20:52;;;;;;;1.00;1.00;;;;;;;1.76;92.42;97280.41;4975610;28;20562;-71
2023/12/09 07:23:20;;;;;;;1.27;1.27;;;;;;;1.78;92.60;97279.25;4985997;28;20048;-71
2023/12/09 07:25:48;;;;;;;1.40;1.40;;;;;;;1.78;92.47;97274.00;4990474;28;20498;-70
2023/12/09 07:28:15;;;;;;;1.00;1.00;;;;;;;1.80;92.54;97276.47;4985068;28;20555;-71
2023/12/09 07:30:43;;;;;;;1.05;1.05;;;;;;;1.80;92.50;97264.16;4981823;28;20042;-71
2023/12/09 07:33:11;;;;;;;1.02;1.02;;;;;;;1.82;92.27;97264.00;4981400;28;20093;-71
2023/12/09 07:35:40;;;;;;;0.93;0.93;;;;;;;1.79;92.66;97264.31;4981090;28;20046;-75
2023/12/09 07:38:08;;;;;;;1.02;1.02;;;;;;;1.80;92.52;97266.78;4981091;28;20118;-71
2023/12/09 07:40:36;;;;;;;1.10;1.10;;;;;;;1.76;92.48;97270.72;4983334;28;20053;-71
2023/12/09 07:43:04;;;;;;;1.55;1.55;;;;;;;1.83;92.12;97261.25;4983084;28;20050;-71
2023/12/09 07:45:33;;;;;;;1.60;1.60;;;;;;;1.79;91.93;97261.66;4988957;28;20042;-71
2023/12/09 07:48:01;;;;;;;1.15;1.15;;;;;;;1.76;92.12;97249.66;4983957;28;20041;-71
2023/12/09 07:50:29;;;;;;;1.45;1.45;;;;;;;1.74;92.05;97248.16;4991722;28;20074;-71
2023/12/09 07:52:58;;;;;;;1.38;1.38;;;;;;;1.75;92.19;97245.38;4980547;28;20051;-71
2023/12/09 07:55:26;;;;;;;0.70;0.70;;;;;;;1.81;91.81;97242.13;4978721;28;20656;-71
2023/12/09 07:57:54;;;;;;;1.58;1.58;;;;;;;1.82;91.88;97248.22;4987278;28;20034;-76
2023/12/09 08:00:21;;;;;;;1.35;1.35;;;;;;;1.80;91.95;97248.38;4987317;28;20512;-71
2023/12/09 08:02:49;;;;;;;1.23;1.23;;;;;;;1.82;91.83;97242.97;4992640;28;20046;-73
2023/12/09 08:05:17;;;;;;;1.17;1.17;;;;;;;1.87;91.67;97250.44;4978256;28;20049;-73
2023/12/09 08:07:44;;;;;;;1.10;1.10;;;;;;;1.88;91.89;97246.78;4983854;28;20092;-71
2023/12/09 08:10:13;;;;;;;1.05;1.05;;;;;;;1.90;91.78;97248.31;4985856;28;20050;-74
2023/12/09 08:12:41;;;;;;;1.10;1.10;;;;;;;1.98;91.24;97247.56;4988531;28;20568;-73
2023/12/09 08:15:12;;;;;;;1.17;1.17;;;;;;;1.96;91.28;97247.72;4983515;28;20043;-71
2023/12/09 08:17:41;;;;;;;1.25;1.25;;;;;;;1.94;91.13;97260.19;4986696;28;20590;-72
2023/12/09 08:20:11;;;;;;;1.30;1.30;;;;;;;1.94;91.16;97248.84;4970082;28;20419;-71
2023/12/09 08:22:39;;;;;;;1.45;1.45;;;;;;;1.96;90.88;97250.34;4990908;28;20495;-71
2023/12/09 08:25:09;;;;;;;1.27;1.27;;;;;;;2.04;90.94;97254.88;4985507;28;20054;-71
2023/12/09 08:27:38;;;;;;;1.35;1.35;;;;;;;1.99;90.94;97249.22;4991958;28;20034;-74
2023/12/09 08:30:10;;;;;;;0.47;0.47;;;;;;;2.03;90.84;97253.22;4988949;28;20404;-75
2023/12/09 08:32:39;;;;;;;0.80;0.80;;;;;;;2.01;90.84;97252.53;4980832;28;20046;-71
2023/12/09 08:35:08;;;;;;;1.42;1.42;;;;;;;1.98;90.99;97258.06;4974786;28;20050;-72
2023/12/09 08:37:37;;;;;;;1.10;1.10;;;;;;;2.02;90.83;97244.47;4982773;28;20054;-72
2023/12/09 08:40:09;;;;;;;2.17;2.08;;;;;;;2.01;90.78;97234.09;4977546;28;20052;-71
2023/12/09 08:42:39;;;;;;;1.25;1.25;;;;;;;2.03;90.81;97237.41;4980694;28;20057;-71
2023/12/09 08:45:10;;;;;;;1.05;1.05;;;;;;;2.05;90.71;97238.94;4987529;28;20047;-72
2023/12/09 08:47:37;;;;;;;0.45;0.45;;;;;;;2.08;90.95;97227.25;4995132;28;20411;-71
2023/12/09 08:50:10;;;;;;;1.27;1.27;;;;;;;2.12;90.86;97237.34;4984872;28;20049;-72
2023/12/09 08:52:51;;;;;;;1.95;1.88;;;;;;;2.22;90.59;97229.34;4981997;28;20122;-71
2023/12/09 08:55:20;;;;;;;0.80;0.80;;;;;;;2.31;90.63;97219.72;4986408;28;20161;-71
2023/12/09 08:57:51;;;;;;;1.25;1.25;;;;;;;2.39;90.49;97220.59;4981795;28;20039;-71
2023/12/09 09:00:20;;;;;;;1.25;1.25;;;;;;;2.48;90.10;97219.72;4987075;28;20047;-71
2023/12/09 09:02:49;;;;;;;1.10;1.10;;;;;;;2.52;90.18;97218.41;4979081;28;20054;-75
2023/12/09 09:05:17;;;;;;;1.25;1.25;;;;;;;2.60;89.89;97212.34;4991586;28;20518;-71
2023/12/09 09:07:44;;;;;;;1.15;1.15;;;;;;;2.61;89.14;97210.56;4990696;28;20066;-71
2023/12/09 09:10:12;;;;;;;0.90;0.90;;;;;;;2.63;88.73;97208.59;4985765;28;20061;-71
2023/12/09 09:12:40;;;;;;;1.58;1.58;;;;;;;2.54;88.53;97205.91;4984170;28;20047;-71
2023/12/09 09:15:10;;;;;;;1.02;1.02;;;;;;;2.55;89.14;97215.47;4985779;28;20055;-71
2023/12/09 09:17:39;;;;;;;1.00;1.00;;;;;;;2.54;88.79;97213.00;4985930;28;20411;-72
2023/12/09 09:20:08;;;;;;;0.77;0.77;;;;;;;2.53;88.77;97208.69;4984585;28;20385;-73
2023/12/09 09:22:36;;;;;;;1.02;1.02;;;;;;;2.56;88.63;97205.78;4984445;28;20374;-72
2023/12/09 09:25:04;;;;;;;1.58;1.58;;;;;;;2.57;88.38;97215.31;4987126;28;20050;-71
2023/12/09 09:27:31;;;;;;;0.90;0.90;;;;;;;2.58;88.27;97209.91;4981584;28;20129;-72
2023/12/09 09:29:58;;;;;;;1.05;1.05;;;;;;;2.61;88.51;97206.13;4992721;28;20096;-71
2023/12/09 09:32:28;;;;;;;0.77;0.77;;;;;;;2.60;88.16;97193.91;4981167;28;20050;-71
2023/12/09 09:34:56;;;;;;;1.20;1.20;;;;;;;2.66;88.50;97206.50;4984676;28;20532;-73
2023/12/09 09:37:24;;;;;;;0.93;0.93;;;;;;;2.67;88.61;97200.25;4981911;28;20508;-71
2023/12/09 09:39:51;;;;;;;1.05;1.05;;;;;;;2.70;88.30;97194.66;4997404;28;20042;-71
2023/12/09 09:42:25;;;;;;;1.17;1.17;;;;;;;2.74;88.35;97188.09;4992103;28;20058;-71
2023/12/09 09:45:05;;;;;;;1.45;1.45;;;;;;;2.86;88.09;97188.66;4991454;28;20042;-74
2023/12/09 09:47:37;;;;;;;1.17;1.17;;;;;;;2.93;87.65;97187.88;4987795;28;20055;-71
2023/12/09 09:50:05;;;;;;;0.95;0.95;;;;;;;3.00;87.36;97182.81;5001858;28;20041;-72
2023/12/09 09:52:35;;;;;;;1.52;1.52;;;;;;;3.09;87.24;97176.59;4988707;28;20117;-71
2023/12/09 09:55:03;;;;;;;1.23;1.23;;;;;;;3.14;87.13;97176.91;4996216;28;20046;-71
2023/12/09 09:57:31;;;;;;;1.30;1.30;;;;;;;3.14;86.87;97171.66;4981103;28;20097;-71
2023/12/09 10:00:00;;;;;;;0.98;0.98;;;;;;;3.18;86.65;97162.44;4989396;28;20073;-71
2023/12/09 10:02:28;;;;;;;1.00;1.00;;;;;;;3.20;86.48;97160.50;4985612;28;20101;-71
2023/12/09 10:04:57;;;;;;;1.05;1.05;;;;;;;3.26;86.38;97157.19;4986395;28;20381;-71
2023/12/09 10:07:25;;;;;;;0.88;0.88;;;;;;;3.25;86.33;97165.25;4979700;28;20046;-72
2023/12/09 10:09:52;;;;;;;0.80;0.80;;;;;;;3.20;86.31;97155.22;4984235;28;20062;-71
2023/12/09 10:12:20;;;;;;;1.02;1.02;;;;;;;3.18;86.12;97144.00;4986062;28;20052;-71
2023/12/09 10:14:47;;;;;;;1.00;1.00;;;;;;;3.20;86.13;97139.41;4987382;28;20038;-71
2023/12/09 10:17:18;;;;;;;1.17;1.17;;;;;;;3.16;86.03;97138.03;4981807;28;20113;-71
2023/12/09 10:19:46;;;;;;;1.08;1.08;;;;;;;3.19;86.12;97136.91;4992550;28;20049;-71
2023/12/09 10:22:15;;;;;;;1.05;1.05;;;;;;;3.16;86.25;97137.22;4988083;28;20109;-71
2023/12/09 10:24:48;;;;;;;1.15;1.15;;;;;;;3.19;86.25;97129.00;4983134;28;20490;-71
2023/12/09 10:27:17;;;;;;;1.23;1.23;;;;;;;3.18;86.19;97122.06;4983099;28;20057;-71
2023/12/09 10:29:45;;;;;;;2.03;2.03;;;;;;;3.18;86.40;97107.09;4982494;28;20121;-70
2023/12/09 10:32:14;;;;;;;1.13;1.13;;;;;;;3.18;86.31;97103.63;4982188;28;20057;-71
2023/12/09 10:34:42;;;;;;;0.95;0.95;;;;;;;3.15;86.39;97088.13;4978473;28;20043;-71
2023/12/09 10:37:10;;;;;;;1.30;1.30;;;;;;;3.12;86.60;97078.72;4987458;28;20042;-71
2023/12/09 10:39:42;;;;;;;0.52;0.52;;;;;;;3.13;86.86;97075.09;4992026;28;20499;-70
2023/12/09 10:42:10;;;;;;;0.28;0.28;;;;;;;3.16;86.72;97063.41;4982630;28;20427;-70
2023/12/09 10:44:38;;;;;;;0.93;0.93;;;;;;;3.21;86.58;97061.94;4978361;28;20053;-71
2023/12/09 10:47:06;;;;;;;1.13;1.13;;;;;;;3.33;86.39;97068.53;4986839;28;20413;-71
2023/12/09 10:49:34;;;;;;;0.88;0.88;;;;;;;3.42;86.18;97066.75;4991192;28;20037;-71
2023/12/09 10:52:02;;;;;;;0.30;0.30;;;;;;;3.50;85.42;97069.41;4989457;28;20422;-71
2023/12/09 10:54:30;;;;;;;0.98;0.98;;;;;;;3.59;85.22;97059.66;4980390;28;20035;-71
2023/12/09 10:56:59;;;;;;;0.95;0.95;;;;;;;3.68;85.00;97048.13;4987218;28;20407;-72
2023/12/09 10:59:29;;;;;;;1.10;1.10;;;;;;;3.76;84.58;97045.47;4950105;28;1016836;-73
2023/12/09 11:01:57;;;;;;;0.82;0.82;;;;;;;3.81;84.08;97043.19;4986046;28;20320;-72
2023/12/09 11:04:25;;;;;;;1.25;1.25;;;;;;;3.86;84.03;97045.31;4977228;28;20046;-73
2023/12/09 11:06:56;;;;;;;1.50;1.50;;;;;;;3.95;83.81;97039.03;4989668;28;20049;-72
2023/12/09 11:09:24;;;;;;;1.05;1.05;;;;;;;3.87;83.51;97028.47;4977931;28;20125;-73
2023/12/09 11:11:52;;;;;;;1.23;1.23;;;;;;;3.89;83.64;97029.16;4983790;28;20140;-72
2023/12/09 11:14:25;;;;;;;0.95;0.95;;;;;;;3.84;83.68;97021.72;4981528;28;20153;-72
2023/12/09 11:16:53;;;;;;;0.70;0.70;;;;;;;3.84;83.85;97027.00;4984276;28;20060;-72
2023/12/09 11:19:22;;;;;;;0.88;0.88;;;;;;;3.87;83.65;97026.66;4976668;28;20046;-72
2023/12/09 11:21:50;;;;;;;0.75;0.75;;;;;;;3.96;83.54;97027.47;4971788;28;20050;-72
2023/12/09 11:24:19;;;;;;;0.80;0.80;;;;;;;3.97;83.73;97023.84;4987348;28;20035;-72
2023/12/09 11:26:47;;;;;;;0.60;0.60;;;;;;;4.01;83.53;97014.63;4991530;28;20047;-72
2023/12/09 11:29:18;;;;;;;1.35;1.35;;;;;;;3.98;83.41;97015.78;4986466;28;20076;-72
2023/12/09 11:31:48;;;;;;;1.15;1.15;;;;;;;4.01;83.23;97009.34;4979712;28;20077;-72
2023/12/09 11:34:17;;;;;;;1.08;1.08;;;;;;;4.06;82.92;97010.47;4984881;28;20070;-73
2023/12/09 11:36:47;;;;;;;0.98;0.98;;;;;;;4.29;82.14;97004.47;4982094;28;20423;-73
2023/12/09 11:39:17;;;;;;;0.70;0.70;;;;;;;4.28;81.92;97011.56;4987070;28;20041;-73
2023/12/09 11:41:46;;;;;;;0.88;0.88;;;;;;;4.33;82.00;97003.16;4978977;28;20078;-72
2023/12/09 11:44:14;;;;;;;0.80;0.80;;;;;;;4.33;81.54;97003.16;4988745;28;20530;-72
2023/12/09 11:46:42;;;;;;;2.20;2.13;;;;;;;4.33;81.74;96996.06;4983310;28;20046;-72